sensor_id;sensor_type;location;lat;lon;timestamp;P1;durP1;ratioP1;P2;durP2;ratioP2
78288;SDS011;67539;48.752;12.922;2023-06-14T00:02:14;5.80;;;5.30;;
78288;SDS011;67539;48.752;12.922;2023-06-14T00:04:43;5.67;;;5.27;;
78288;SDS011;67539;48.752;12.922;2023-06-14T00:07:11;6.23;;;5.63;;
78288;SDS011;67539;48.752;12.922;2023-06-14T00:09:40;6.57;;;5.87;;
78288;SDS011;67539;48.752;12.922;2023-06-14T00:12:08;6.50;;;6.00;;
78288;SDS011;67539;48.752;12.922;2023-06-14T00:14:38;7.30;;;6.60;;
78288;SDS011;67539;48.752;12.922;2023-06-14T00:17:06;6.37;;;5.77;;
78288;SDS011;67539;48.752;12.922;2023-06-14T00:19:35;6.60;;;5.90;;
78288;SDS011;67539;48.752;12.922;2023-06-14T00:22:03;6.50;;;5.90;;
78288;SDS011;67539;48.752;12.922;2023-06-14T00:24:32;7.60;;;5.73;;
78288;SDS011;67539;48.752;12.922;2023-06-14T00:27:00;5.93;;;5.40;;
78288;SDS011;67539;48.752;12.922;2023-06-14T00:29:29;6.30;;;5.70;;
78288;SDS011;67539;48.752;12.922;2023-06-14T00:31:59;6.33;;;5.73;;
78288;SDS011;67539;48.752;12.922;2023-06-14T00:34:27;8.40;;;5.67;;
78288;SDS011;67539;48.752;12.922;2023-06-14T00:36:55;5.50;;;5.10;;
78288;SDS011;67539;48.752;12.922;2023-06-14T00:39:23;6.63;;;6.03;;
78288;SDS011;67539;48.752;12.922;2023-06-14T00:41:51;6.73;;;5.70;;
78288;SDS011;67539;48.752;12.922;2023-06-14T00:44:19;5.97;;;5.37;;
78288;SDS011;67539;48.752;12.922;2023-06-14T00:46:48;11.33;;;5.33;;
78288;SDS011;67539;48.752;12.922;2023-06-14T00:49:18;6.00;;;5.47;;
78288;SDS011;67539;48.752;12.922;2023-06-14T00:51:47;5.83;;;5.23;;
78288;SDS011;67539;48.752;12.922;2023-06-14T00:54:15;6.43;;;5.83;;
78288;SDS011;67539;48.752;12.922;2023-06-14T00:56:43;6.30;;;5.70;;
78288;SDS011;67539;48.752;12.922;2023-06-14T00:59:12;6.00;;;5.17;;
78288;SDS011;67539;48.752;12.922;2023-06-14T01:01:41;5.40;;;5.00;;
78288;SDS011;67539;48.752;12.922;2023-06-14T01:04:10;6.67;;;5.97;;
78288;SDS011;67539;48.752;12.922;2023-06-14T01:06:40;6.73;;;6.23;;
78288;SDS011;67539;48.752;12.922;2023-06-14T01:09:18;5.10;;;4.70;;
78288;SDS011;67539;48.752;12.922;2023-06-14T01:11:58;6.37;;;5.27;;
78288;SDS011;67539;48.752;12.922;2023-06-14T01:14:31;5.57;;;4.90;;
78288;SDS011;67539;48.752;12.922;2023-06-14T01:17:01;5.60;;;5.10;;
78288;SDS011;67539;48.752;12.922;2023-06-14T01:19:31;6.23;;;4.97;;
78288;SDS011;67539;48.752;12.922;2023-06-14T01:22:02;5.83;;;5.33;;
78288;SDS011;67539;48.752;12.922;2023-06-14T01:24:32;7.00;;;6.30;;
78288;SDS011;67539;48.752;12.922;2023-06-14T01:27:01;6.03;;;5.53;;
78288;SDS011;67539;48.752;12.922;2023-06-14T01:29:30;5.77;;;5.27;;
78288;SDS011;67539;48.752;12.922;2023-06-14T01:31:59;5.83;;;5.20;;
78288;SDS011;67539;48.752;12.922;2023-06-14T01:34:29;7.90;;;5.50;;
78288;SDS011;67539;48.752;12.922;2023-06-14T01:36:58;5.67;;;5.17;;
78288;SDS011;67539;48.752;12.922;2023-06-14T01:39:31;5.83;;;5.40;;
78288;SDS011;67539;48.752;12.922;2023-06-14T01:42:01;6.20;;;5.60;;
78288;SDS011;67539;48.752;12.922;2023-06-14T01:44:29;6.33;;;5.73;;
78288;SDS011;67539;48.752;12.922;2023-06-14T01:47:00;6.07;;;5.47;;
78288;SDS011;67539;48.752;12.922;2023-06-14T01:49:28;7.23;;;6.50;;
78288;SDS011;67539;48.752;12.922;2023-06-14T01:51:56;6.73;;;6.13;;
78288;SDS011;67539;48.752;12.922;2023-06-14T01:54:24;7.57;;;6.10;;
78288;SDS011;67539;48.752;12.922;2023-06-14T01:56:55;6.80;;;6.10;;
78288;SDS011;67539;48.752;12.922;2023-06-14T01:59:23;8.83;;;6.40;;
78288;SDS011;67539;48.752;12.922;2023-06-14T02:01:52;7.10;;;6.40;;
78288;SDS011;67539;48.752;12.922;2023-06-14T02:04:20;7.17;;;6.47;;
78288;SDS011;67539;48.752;12.922;2023-06-14T02:06:48;6.20;;;5.30;;
78288;SDS011;67539;48.752;12.922;2023-06-14T02:09:17;7.20;;;5.80;;
78288;SDS011;67539;48.752;12.922;2023-06-14T02:11:45;7.77;;;6.20;;
78288;SDS011;67539;48.752;12.922;2023-06-14T02:14:14;6.80;;;6.20;;
78288;SDS011;67539;48.752;12.922;2023-06-14T02:16:43;6.80;;;6.20;;
78288;SDS011;67539;48.752;12.922;2023-06-14T02:19:15;10.83;;;6.20;;
78288;SDS011;67539;48.752;12.922;2023-06-14T02:21:43;8.30;;;7.00;;
78288;SDS011;67539;48.752;12.922;2023-06-14T02:24:11;6.97;;;6.27;;
78288;SDS011;67539;48.752;12.922;2023-06-14T02:26:40;6.50;;;5.90;;
78288;SDS011;67539;48.752;12.922;2023-06-14T02:29:12;6.83;;;6.13;;
78288;SDS011;67539;48.752;12.922;2023-06-14T02:31:42;6.93;;;6.30;;
78288;SDS011;67539;48.752;12.922;2023-06-14T02:34:13;8.93;;;6.67;;
78288;SDS011;67539;48.752;12.922;2023-06-14T02:36:43;7.23;;;6.47;;
78288;SDS011;67539;48.752;12.922;2023-06-14T02:39:11;7.23;;;6.53;;
78288;SDS011;67539;48.752;12.922;2023-06-14T02:41:39;8.80;;;6.27;;
78288;SDS011;67539;48.752;12.922;2023-06-14T02:44:07;6.53;;;5.90;;
78288;SDS011;67539;48.752;12.922;2023-06-14T02:46:38;8.17;;;6.50;;
78288;SDS011;67539;48.752;12.922;2023-06-14T02:49:07;7.37;;;6.20;;
78288;SDS011;67539;48.752;12.922;2023-06-14T02:51:37;7.27;;;6.40;;
78288;SDS011;67539;48.752;12.922;2023-06-14T02:54:05;7.87;;;5.93;;
78288;SDS011;67539;48.752;12.922;2023-06-14T02:56:33;8.90;;;6.53;;
78288;SDS011;67539;48.752;12.922;2023-06-14T02:59:02;6.30;;;5.80;;
78288;SDS011;67539;48.752;12.922;2023-06-14T03:01:31;6.30;;;5.57;;
78288;SDS011;67539;48.752;12.922;2023-06-14T03:04:05;8.13;;;6.40;;
78288;SDS011;67539;48.752;12.922;2023-06-14T03:06:37;7.97;;;6.50;;
78288;SDS011;67539;48.752;12.922;2023-06-14T03:09:06;6.60;;;5.70;;
78288;SDS011;67539;48.752;12.922;2023-06-14T03:11:38;10.47;;;6.90;;
78288;SDS011;67539;48.752;12.922;2023-06-14T03:14:06;7.53;;;6.83;;
78288;SDS011;67539;48.752;12.922;2023-06-14T03:16:36;8.00;;;6.33;;
78288;SDS011;67539;48.752;12.922;2023-06-14T03:19:06;7.03;;;6.40;;
78288;SDS011;67539;48.752;12.922;2023-06-14T03:21:36;9.33;;;6.00;;
78288;SDS011;67539;48.752;12.922;2023-06-14T03:24:05;9.23;;;6.63;;
78288;SDS011;67539;48.752;12.922;2023-06-14T03:26:34;7.30;;;6.60;;
78288;SDS011;67539;48.752;12.922;2023-06-14T03:29:03;6.83;;;6.17;;
78288;SDS011;67539;48.752;12.922;2023-06-14T03:31:32;7.70;;;7.00;;
78288;SDS011;67539;48.752;12.922;2023-06-14T03:34:03;6.40;;;5.80;;
78288;SDS011;67539;48.752;12.922;2023-06-14T03:36:31;7.80;;;7.07;;
78288;SDS011;67539;48.752;12.922;2023-06-14T03:39:01;9.13;;;6.53;;
78288;SDS011;67539;48.752;12.922;2023-06-14T03:41:29;6.73;;;6.13;;
78288;SDS011;67539;48.752;12.922;2023-06-14T03:43:57;6.47;;;5.83;;
78288;SDS011;67539;48.752;12.922;2023-06-14T03:46:25;6.50;;;5.90;;
78288;SDS011;67539;48.752;12.922;2023-06-14T03:48:53;10.03;;;6.33;;
78288;SDS011;67539;48.752;12.922;2023-06-14T03:51:22;6.87;;;6.27;;
78288;SDS011;67539;48.752;12.922;2023-06-14T03:53:51;10.60;;;6.63;;
78288;SDS011;67539;48.752;12.922;2023-06-14T03:56:26;6.93;;;6.33;;
78288;SDS011;67539;48.752;12.922;2023-06-14T03:58:54;7.77;;;6.87;;
78288;SDS011;67539;48.752;12.922;2023-06-14T04:01:26;6.97;;;6.33;;
78288;SDS011;67539;48.752;12.922;2023-06-14T04:03:58;6.50;;;5.70;;
78288;SDS011;67539;48.752;12.922;2023-06-14T04:06:26;7.07;;;6.10;;
78288;SDS011;67539;48.752;12.922;2023-06-14T04:08:59;7.30;;;6.17;;
78288;SDS011;67539;48.752;12.922;2023-06-14T04:11:31;9.87;;;6.60;;
78288;SDS011;67539;48.752;12.922;2023-06-14T04:14:01;5.97;;;5.47;;
78288;SDS011;67539;48.752;12.922;2023-06-14T04:16:30;7.30;;;6.70;;
78288;SDS011;67539;48.752;12.922;2023-06-14T04:19:00;7.33;;;6.17;;
78288;SDS011;67539;48.752;12.922;2023-06-14T04:21:28;6.53;;;5.90;;
78288;SDS011;67539;48.752;12.922;2023-06-14T04:23:58;6.27;;;5.67;;
78288;SDS011;67539;48.752;12.922;2023-06-14T04:26:33;7.63;;;5.90;;
78288;SDS011;67539;48.752;12.922;2023-06-14T04:29:01;9.00;;;6.80;;
78288;SDS011;67539;48.752;12.922;2023-06-14T04:31:33;10.03;;;7.43;;
78288;SDS011;67539;48.752;12.922;2023-06-14T04:34:07;8.00;;;7.03;;
78288;SDS011;67539;48.752;12.922;2023-06-14T04:36:36;7.77;;;7.07;;
78288;SDS011;67539;48.752;12.922;2023-06-14T04:39:05;7.90;;;7.20;;
78288;SDS011;67539;48.752;12.922;2023-06-14T04:41:34;8.20;;;6.60;;
78288;SDS011;67539;48.752;12.922;2023-06-14T04:44:03;7.93;;;7.13;;
78288;SDS011;67539;48.752;12.922;2023-06-14T04:46:36;7.23;;;6.50;;
78288;SDS011;67539;48.752;12.922;2023-06-14T04:49:16;8.80;;;7.70;;
78288;SDS011;67539;48.752;12.922;2023-06-14T04:51:44;7.90;;;7.10;;
78288;SDS011;67539;48.752;12.922;2023-06-14T04:54:13;8.07;;;7.27;;
78288;SDS011;67539;48.752;12.922;2023-06-14T04:56:43;8.40;;;7.60;;
78288;SDS011;67539;48.752;12.922;2023-06-14T04:59:12;7.07;;;6.47;;
78288;SDS011;67539;48.752;12.922;2023-06-14T05:01:43;7.83;;;7.13;;
78288;SDS011;67539;48.752;12.922;2023-06-14T05:04:14;7.50;;;6.80;;
78288;SDS011;67539;48.752;12.922;2023-06-14T05:06:42;8.23;;;7.53;;
78288;SDS011;67539;48.752;12.922;2023-06-14T05:09:12;9.77;;;7.57;;
78288;SDS011;67539;48.752;12.922;2023-06-14T05:11:41;8.27;;;7.60;;
78288;SDS011;67539;48.752;12.922;2023-06-14T05:14:12;7.70;;;6.90;;
78288;SDS011;67539;48.752;12.922;2023-06-14T05:16:41;8.63;;;7.80;;
78288;SDS011;67539;48.752;12.922;2023-06-14T05:19:10;7.37;;;6.60;;
78288;SDS011;67539;48.752;12.922;2023-06-14T05:21:38;7.90;;;7.13;;
78288;SDS011;67539;48.752;12.922;2023-06-14T05:24:09;8.17;;;7.07;;
78288;SDS011;67539;48.752;12.922;2023-06-14T05:26:37;9.03;;;8.13;;
78288;SDS011;67539;48.752;12.922;2023-06-14T05:29:06;7.87;;;7.20;;
78288;SDS011;67539;48.752;12.922;2023-06-14T05:31:35;6.50;;;5.93;;
78288;SDS011;67539;48.752;12.922;2023-06-14T05:34:04;6.73;;;6.13;;
78288;SDS011;67539;48.752;12.922;2023-06-14T05:36:32;8.10;;;7.37;;
78288;SDS011;67539;48.752;12.922;2023-06-14T05:39:03;7.03;;;6.33;;
78288;SDS011;67539;48.752;12.922;2023-06-14T05:41:32;6.60;;;6.00;;
78288;SDS011;67539;48.752;12.922;2023-06-14T05:44:00;6.43;;;5.83;;
78288;SDS011;67539;48.752;12.922;2023-06-14T05:46:29;6.83;;;6.20;;
78288;SDS011;67539;48.752;12.922;2023-06-14T05:48:58;7.30;;;6.60;;
78288;SDS011;67539;48.752;12.922;2023-06-14T05:51:26;6.60;;;6.10;;
78288;SDS011;67539;48.752;12.922;2023-06-14T05:53:55;6.63;;;6.13;;
78288;SDS011;67539;48.752;12.922;2023-06-14T05:56:23;6.03;;;5.53;;
78288;SDS011;67539;48.752;12.922;2023-06-14T05:58:51;6.00;;;5.50;;
78288;SDS011;67539;48.752;12.922;2023-06-14T06:01:19;7.73;;;6.17;;
78288;SDS011;67539;48.752;12.922;2023-06-14T06:03:48;6.73;;;6.13;;
78288;SDS011;67539;48.752;12.922;2023-06-14T06:06:18;6.43;;;5.83;;
78288;SDS011;67539;48.752;12.922;2023-06-14T06:08:46;6.83;;;6.23;;
78288;SDS011;67539;48.752;12.922;2023-06-14T06:11:14;6.53;;;5.93;;
78288;SDS011;67539;48.752;12.922;2023-06-14T06:13:42;6.20;;;5.60;;
78288;SDS011;67539;48.752;12.922;2023-06-14T06:16:10;6.53;;;6.03;;
78288;SDS011;67539;48.752;12.922;2023-06-14T06:18:38;6.67;;;6.07;;
78288;SDS011;67539;48.752;12.922;2023-06-14T06:21:08;6.97;;;6.07;;
78288;SDS011;67539;48.752;12.922;2023-06-14T06:23:38;6.77;;;6.17;;
78288;SDS011;67539;48.752;12.922;2023-06-14T06:26:06;7.30;;;5.60;;
78288;SDS011;67539;48.752;12.922;2023-06-14T06:28:34;5.77;;;5.37;;
78288;SDS011;67539;48.752;12.922;2023-06-14T06:31:02;6.47;;;5.57;;
78288;SDS011;67539;48.752;12.922;2023-06-14T06:33:30;6.20;;;5.60;;
78288;SDS011;67539;48.752;12.922;2023-06-14T06:35:58;6.27;;;5.73;;
78288;SDS011;67539;48.752;12.922;2023-06-14T06:38:26;6.67;;;5.43;;
78288;SDS011;67539;48.752;12.922;2023-06-14T06:40:56;6.83;;;6.23;;
78288;SDS011;67539;48.752;12.922;2023-06-14T06:43:24;6.17;;;5.67;;
78288;SDS011;67539;48.752;12.922;2023-06-14T06:45:53;7.47;;;6.63;;
78288;SDS011;67539;48.752;12.922;2023-06-14T06:48:21;6.87;;;6.27;;
78288;SDS011;67539;48.752;12.922;2023-06-14T06:50:49;7.03;;;6.47;;
78288;SDS011;67539;48.752;12.922;2023-06-14T06:53:17;6.50;;;5.93;;
78288;SDS011;67539;48.752;12.922;2023-06-14T06:55:57;6.03;;;5.63;;
78288;SDS011;67539;48.752;12.922;2023-06-14T06:58:25;5.97;;;5.40;;
78288;SDS011;67539;48.752;12.922;2023-06-14T07:00:53;7.00;;;5.77;;
78288;SDS011;67539;48.752;12.922;2023-06-14T07:03:21;6.30;;;5.70;;
78288;SDS011;67539;48.752;12.922;2023-06-14T07:05:49;6.47;;;5.97;;
78288;SDS011;67539;48.752;12.922;2023-06-14T07:08:17;6.73;;;6.13;;
78288;SDS011;67539;48.752;12.922;2023-06-14T07:10:45;6.40;;;5.90;;
78288;SDS011;67539;48.752;12.922;2023-06-14T07:13:15;8.63;;;5.30;;
78288;SDS011;67539;48.752;12.922;2023-06-14T07:15:43;5.53;;;5.13;;
78288;SDS011;67539;48.752;12.922;2023-06-14T07:18:11;6.57;;;6.07;;
78288;SDS011;67539;48.752;12.922;2023-06-14T07:20:42;6.43;;;5.83;;
78288;SDS011;67539;48.752;12.922;2023-06-14T07:23:10;5.37;;;4.97;;
78288;SDS011;67539;48.752;12.922;2023-06-14T07:25:38;5.83;;;5.33;;
78288;SDS011;67539;48.752;12.922;2023-06-14T07:28:06;5.60;;;5.20;;
78288;SDS011;67539;48.752;12.922;2023-06-14T07:30:36;5.30;;;4.83;;
78288;SDS011;67539;48.752;12.922;2023-06-14T07:33:04;5.17;;;4.70;;
78288;SDS011;67539;48.752;12.922;2023-06-14T07:35:32;4.77;;;4.40;;
78288;SDS011;67539;48.752;12.922;2023-06-14T07:38:00;6.17;;;5.57;;
78288;SDS011;67539;48.752;12.922;2023-06-14T07:40:28;5.40;;;4.90;;
78288;SDS011;67539;48.752;12.922;2023-06-14T07:42:56;5.40;;;5.00;;
78288;SDS011;67539;48.752;12.922;2023-06-14T07:45:24;5.90;;;5.33;;
78288;SDS011;67539;48.752;12.922;2023-06-14T07:47:54;6.03;;;5.43;;
78288;SDS011;67539;48.752;12.922;2023-06-14T07:50:22;5.20;;;4.90;;
78288;SDS011;67539;48.752;12.922;2023-06-14T07:52:51;5.60;;;5.20;;
78288;SDS011;67539;48.752;12.922;2023-06-14T07:55:19;6.63;;;5.10;;
78288;SDS011;67539;48.752;12.922;2023-06-14T07:57:47;5.90;;;5.30;;
78288;SDS011;67539;48.752;12.922;2023-06-14T08:00:16;6.10;;;5.00;;
78288;SDS011;67539;48.752;12.922;2023-06-14T08:02:45;4.63;;;4.40;;
78288;SDS011;67539;48.752;12.922;2023-06-14T08:05:15;4.70;;;4.30;;
78288;SDS011;67539;48.752;12.922;2023-06-14T08:07:44;5.23;;;4.73;;
78288;SDS011;67539;48.752;12.922;2023-06-14T08:10:12;5.10;;;4.80;;
78288;SDS011;67539;48.752;12.922;2023-06-14T08:12:40;4.87;;;4.50;;
78288;SDS011;67539;48.752;12.922;2023-06-14T08:15:09;4.60;;;4.13;;
78288;SDS011;67539;48.752;12.922;2023-06-14T08:17:41;5.23;;;4.77;;
78288;SDS011;67539;48.752;12.922;2023-06-14T08:20:10;5.90;;;5.40;;
78288;SDS011;67539;48.752;12.922;2023-06-14T08:22:41;5.67;;;4.80;;
78288;SDS011;67539;48.752;12.922;2023-06-14T08:25:09;5.40;;;5.00;;
78288;SDS011;67539;48.752;12.922;2023-06-14T08:27:38;5.90;;;5.40;;
78288;SDS011;67539;48.752;12.922;2023-06-14T08:30:07;5.50;;;5.03;;
78288;SDS011;67539;48.752;12.922;2023-06-14T08:32:36;5.47;;;5.00;;
78288;SDS011;67539;48.752;12.922;2023-06-14T08:35:04;4.83;;;4.23;;
78288;SDS011;67539;48.752;12.922;2023-06-14T08:37:33;5.00;;;4.70;;
78288;SDS011;67539;48.752;12.922;2023-06-14T08:40:12;5.37;;;4.97;;
78288;SDS011;67539;48.752;12.922;2023-06-14T08:42:48;7.57;;;5.00;;
78288;SDS011;67539;48.752;12.922;2023-06-14T08:45:19;4.90;;;4.60;;
78288;SDS011;67539;48.752;12.922;2023-06-14T08:47:51;5.03;;;4.63;;
78288;SDS011;67539;48.752;12.922;2023-06-14T08:50:25;5.20;;;4.80;;
78288;SDS011;67539;48.752;12.922;2023-06-14T08:52:59;4.40;;;4.13;;
78288;SDS011;67539;48.752;12.922;2023-06-14T08:55:32;4.50;;;4.20;;
78288;SDS011;67539;48.752;12.922;2023-06-14T08:58:03;5.67;;;5.00;;
78288;SDS011;67539;48.752;12.922;2023-06-14T09:00:32;4.90;;;4.60;;
78288;SDS011;67539;48.752;12.922;2023-06-14T09:03:00;5.03;;;4.73;;
78288;SDS011;67539;48.752;12.922;2023-06-14T09:05:29;4.90;;;4.60;;
78288;SDS011;67539;48.752;12.922;2023-06-14T09:07:57;5.47;;;4.97;;
78288;SDS011;67539;48.752;12.922;2023-06-14T09:10:32;5.23;;;4.67;;
78288;SDS011;67539;48.752;12.922;2023-06-14T09:13:03;5.77;;;4.87;;
78288;SDS011;67539;48.752;12.922;2023-06-14T09:15:31;4.37;;;4.07;;
78288;SDS011;67539;48.752;12.922;2023-06-14T09:18:00;4.93;;;4.63;;
78288;SDS011;67539;48.752;12.922;2023-06-14T09:20:30;4.90;;;4.47;;
78288;SDS011;67539;48.752;12.922;2023-06-14T09:22:58;4.60;;;4.30;;
78288;SDS011;67539;48.752;12.922;2023-06-14T09:25:27;6.77;;;4.83;;
78288;SDS011;67539;48.752;12.922;2023-06-14T09:28:07;4.83;;;4.50;;
78288;SDS011;67539;48.752;12.922;2023-06-14T09:30:36;4.27;;;4.07;;
78288;SDS011;67539;48.752;12.922;2023-06-14T09:33:05;4.80;;;4.40;;
78288;SDS011;67539;48.752;12.922;2023-06-14T09:35:33;5.10;;;4.60;;
78288;SDS011;67539;48.752;12.922;2023-06-14T09:38:03;4.60;;;4.23;;
78288;SDS011;67539;48.752;12.922;2023-06-14T09:40:33;5.07;;;4.67;;
78288;SDS011;67539;48.752;12.922;2023-06-14T09:43:04;6.93;;;4.30;;
78288;SDS011;67539;48.752;12.922;2023-06-14T09:45:36;4.77;;;4.37;;
78288;SDS011;67539;48.752;12.922;2023-06-14T09:48:06;4.10;;;3.90;;
78288;SDS011;67539;48.752;12.922;2023-06-14T09:50:36;6.40;;;5.80;;
78288;SDS011;67539;48.752;12.922;2023-06-14T09:53:05;5.57;;;4.70;;
78288;SDS011;67539;48.752;12.922;2023-06-14T09:55:35;4.90;;;4.50;;
78288;SDS011;67539;48.752;12.922;2023-06-14T09:58:05;5.20;;;4.90;;
78288;SDS011;67539;48.752;12.922;2023-06-14T10:00:35;4.83;;;4.53;;
78288;SDS011;67539;48.752;12.922;2023-06-14T10:03:11;4.70;;;4.40;;
78288;SDS011;67539;48.752;12.922;2023-06-14T10:05:41;4.93;;;4.53;;
78288;SDS011;67539;48.752;12.922;2023-06-14T10:08:13;4.87;;;4.57;;
78288;SDS011;67539;48.752;12.922;2023-06-14T10:10:44;4.43;;;4.00;;
78288;SDS011;67539;48.752;12.922;2023-06-14T10:13:12;4.47;;;4.07;;
78288;SDS011;67539;48.752;12.922;2023-06-14T10:15:43;5.63;;;4.10;;
78288;SDS011;67539;48.752;12.922;2023-06-14T10:18:19;4.80;;;4.50;;
78288;SDS011;67539;48.752;12.922;2023-06-14T10:20:55;4.53;;;4.20;;
78288;SDS011;67539;48.752;12.922;2023-06-14T10:23:31;4.53;;;4.10;;
78288;SDS011;67539;48.752;12.922;2023-06-14T10:26:02;4.13;;;3.90;;
78288;SDS011;67539;48.752;12.922;2023-06-14T10:28:31;4.57;;;4.17;;
78288;SDS011;67539;48.752;12.922;2023-06-14T10:31:07;4.57;;;4.27;;
78288;SDS011;67539;48.752;12.922;2023-06-14T10:33:37;4.50;;;4.20;;
78288;SDS011;67539;48.752;12.922;2023-06-14T10:36:25;4.43;;;4.13;;
78288;SDS011;67539;48.752;12.922;2023-06-14T10:38:57;4.50;;;4.13;;
78288;SDS011;67539;48.752;12.922;2023-06-14T10:41:26;4.83;;;4.43;;
78288;SDS011;67539;48.752;12.922;2023-06-14T10:47:08;4.47;;;4.20;;
78288;SDS011;67539;48.752;12.922;2023-06-14T10:49:39;6.07;;;4.20;;
78288;SDS011;67539;48.752;12.922;2023-06-14T10:52:09;4.70;;;4.40;;
78288;SDS011;67539;48.752;12.922;2023-06-14T10:55:01;4.50;;;4.27;;
78288;SDS011;67539;48.752;12.922;2023-06-14T10:57:32;4.87;;;4.37;;
78288;SDS011;67539;48.752;12.922;2023-06-14T11:00:05;6.10;;;5.23;;
78288;SDS011;67539;48.752;12.922;2023-06-14T11:03:03;4.30;;;4.00;;
78288;SDS011;67539;48.752;12.922;2023-06-14T11:05:53;4.87;;;4.50;;
78288;SDS011;67539;48.752;12.922;2023-06-14T11:08:39;5.87;;;4.20;;
78288;SDS011;67539;48.752;12.922;2023-06-14T11:11:32;4.20;;;4.00;;
78288;SDS011;67539;48.752;12.922;2023-06-14T11:14:01;5.00;;;4.70;;
78288;SDS011;67539;48.752;12.922;2023-06-14T11:16:29;4.60;;;4.30;;
78288;SDS011;67539;48.752;12.922;2023-06-14T11:19:01;4.00;;;3.60;;
78288;SDS011;67539;48.752;12.922;2023-06-14T11:21:31;4.80;;;4.50;;
78288;SDS011;67539;48.752;12.922;2023-06-14T11:24:00;4.40;;;4.20;;
78288;SDS011;67539;48.752;12.922;2023-06-14T11:26:29;4.30;;;4.10;;
78288;SDS011;67539;48.752;12.922;2023-06-14T11:29:01;4.60;;;4.30;;
78288;SDS011;67539;48.752;12.922;2023-06-14T11:31:29;5.33;;;4.87;;
78288;SDS011;67539;48.752;12.922;2023-06-14T11:33:58;4.50;;;4.20;;
78288;SDS011;67539;48.752;12.922;2023-06-14T11:36:28;4.70;;;4.30;;
78288;SDS011;67539;48.752;12.922;2023-06-14T11:38:58;4.93;;;4.63;;
78288;SDS011;67539;48.752;12.922;2023-06-14T11:41:32;4.57;;;4.27;;
78288;SDS011;67539;48.752;12.922;2023-06-14T11:44:01;5.23;;;4.60;;
78288;SDS011;67539;48.752;12.922;2023-06-14T11:46:29;4.70;;;4.50;;
78288;SDS011;67539;48.752;12.922;2023-06-14T11:48:57;4.67;;;4.37;;
78288;SDS011;67539;48.752;12.922;2023-06-14T11:51:30;5.60;;;5.00;;
78288;SDS011;67539;48.752;12.922;2023-06-14T11:53:59;4.53;;;4.23;;
78288;SDS011;67539;48.752;12.922;2023-06-14T11:56:29;4.70;;;4.40;;
78288;SDS011;67539;48.752;12.922;2023-06-14T11:58:58;5.50;;;5.10;;
78288;SDS011;67539;48.752;12.922;2023-06-14T12:01:27;4.90;;;4.60;;
78288;SDS011;67539;48.752;12.922;2023-06-14T12:03:58;4.97;;;4.67;;
78288;SDS011;67539;48.752;12.922;2023-06-14T12:06:27;4.57;;;4.23;;
78288;SDS011;67539;48.752;12.922;2023-06-14T12:09:02;4.93;;;4.53;;
78288;SDS011;67539;48.752;12.922;2023-06-14T12:11:33;5.30;;;4.90;;
78288;SDS011;67539;48.752;12.922;2023-06-14T12:14:02;4.60;;;4.30;;
78288;SDS011;67539;48.752;12.922;2023-06-14T12:16:32;5.27;;;4.97;;
78288;SDS011;67539;48.752;12.922;2023-06-14T12:19:01;5.03;;;4.63;;
78288;SDS011;67539;48.752;12.922;2023-06-14T12:21:38;5.13;;;4.50;;
78288;SDS011;67539;48.752;12.922;2023-06-14T12:24:08;4.80;;;4.50;;
78288;SDS011;67539;48.752;12.922;2023-06-14T12:26:39;4.87;;;4.57;;
78288;SDS011;67539;48.752;12.922;2023-06-14T12:29:08;6.67;;;4.80;;
78288;SDS011;67539;48.752;12.922;2023-06-14T12:31:38;5.00;;;4.67;;
78288;SDS011;67539;48.752;12.922;2023-06-14T12:34:07;4.93;;;4.60;;
78288;SDS011;67539;48.752;12.922;2023-06-14T12:36:35;4.50;;;4.20;;
78288;SDS011;67539;48.752;12.922;2023-06-14T12:39:09;4.23;;;4.03;;
78288;SDS011;67539;48.752;12.922;2023-06-14T12:41:37;5.00;;;4.60;;
78288;SDS011;67539;48.752;12.922;2023-06-14T12:44:07;5.37;;;4.70;;
78288;SDS011;67539;48.752;12.922;2023-06-14T12:46:35;5.37;;;4.97;;
78288;SDS011;67539;48.752;12.922;2023-06-14T12:49:07;4.70;;;4.27;;
78288;SDS011;67539;48.752;12.922;2023-06-14T12:51:36;4.77;;;4.47;;
78288;SDS011;67539;48.752;12.922;2023-06-14T12:54:04;4.97;;;4.53;;
78288;SDS011;67539;48.752;12.922;2023-06-14T12:56:33;8.60;;;4.80;;
78288;SDS011;67539;48.752;12.922;2023-06-14T12:59:01;5.13;;;4.80;;
78288;SDS011;67539;48.752;12.922;2023-06-14T13:01:29;4.70;;;4.47;;
78288;SDS011;67539;48.752;12.922;2023-06-14T13:03:57;5.20;;;4.90;;
78288;SDS011;67539;48.752;12.922;2023-06-14T13:06:26;4.90;;;4.60;;
78288;SDS011;67539;48.752;12.922;2023-06-14T13:08:55;5.67;;;5.20;;
78288;SDS011;67539;48.752;12.922;2023-06-14T13:11:25;4.77;;;4.47;;
78288;SDS011;67539;48.752;12.922;2023-06-14T13:13:54;4.30;;;4.10;;
78288;SDS011;67539;48.752;12.922;2023-06-14T13:16:22;5.60;;;5.10;;
78288;SDS011;67539;48.752;12.922;2023-06-14T13:18:51;4.80;;;4.50;;
78288;SDS011;67539;48.752;12.922;2023-06-14T13:21:19;4.90;;;4.50;;
78288;SDS011;67539;48.752;12.922;2023-06-14T13:23:47;4.30;;;4.10;;
78288;SDS011;67539;48.752;12.922;2023-06-14T13:26:15;5.13;;;4.80;;
78288;SDS011;67539;48.752;12.922;2023-06-14T13:28:44;4.70;;;4.43;;
78288;SDS011;67539;48.752;12.922;2023-06-14T13:31:14;4.43;;;4.13;;
78288;SDS011;67539;48.752;12.922;2023-06-14T13:33:42;4.73;;;4.33;;
78288;SDS011;67539;48.752;12.922;2023-06-14T13:36:10;5.20;;;4.80;;
78288;SDS011;67539;48.752;12.922;2023-06-14T13:38:38;5.20;;;4.50;;
78288;SDS011;67539;48.752;12.922;2023-06-14T13:41:06;4.67;;;4.27;;
78288;SDS011;67539;48.752;12.922;2023-06-14T13:43:34;4.40;;;4.20;;
78288;SDS011;67539;48.752;12.922;2023-06-14T13:46:02;4.60;;;4.20;;
78288;SDS011;67539;48.752;12.922;2023-06-14T13:48:32;4.73;;;4.33;;
78288;SDS011;67539;48.752;12.922;2023-06-14T13:51:00;5.37;;;4.60;;
78288;SDS011;67539;48.752;12.922;2023-06-14T13:53:30;4.30;;;4.10;;
78288;SDS011;67539;48.752;12.922;2023-06-14T13:55:58;4.33;;;4.07;;
78288;SDS011;67539;48.752;12.922;2023-06-14T13:58:26;4.80;;;4.30;;
78288;SDS011;67539;48.752;12.922;2023-06-14T14:00:55;4.23;;;3.90;;
78288;SDS011;67539;48.752;12.922;2023-06-14T14:03:26;4.57;;;4.17;;
78288;SDS011;67539;48.752;12.922;2023-06-14T14:05:55;4.60;;;4.30;;
78288;SDS011;67539;48.752;12.922;2023-06-14T14:08:23;4.73;;;4.40;;
78288;SDS011;67539;48.752;12.922;2023-06-14T14:10:52;3.83;;;3.63;;
78288;SDS011;67539;48.752;12.922;2023-06-14T14:13:20;4.03;;;3.73;;
78288;SDS011;67539;48.752;12.922;2023-06-14T14:15:48;4.10;;;3.90;;
78288;SDS011;67539;48.752;12.922;2023-06-14T14:18:17;3.50;;;3.30;;
78288;SDS011;67539;48.752;12.922;2023-06-14T14:20:47;3.60;;;3.50;;
78288;SDS011;67539;48.752;12.922;2023-06-14T14:23:17;3.23;;;3.13;;
78288;SDS011;67539;48.752;12.922;2023-06-14T14:25:46;3.60;;;3.50;;
78288;SDS011;67539;48.752;12.922;2023-06-14T14:28:14;3.70;;;3.40;;
78288;SDS011;67539;48.752;12.922;2023-06-14T14:30:45;3.60;;;3.40;;
78288;SDS011;67539;48.752;12.922;2023-06-14T14:33:13;4.03;;;3.67;;
78288;SDS011;67539;48.752;12.922;2023-06-14T14:35:44;3.50;;;3.40;;
78288;SDS011;67539;48.752;12.922;2023-06-14T14:38:13;3.43;;;3.33;;
78288;SDS011;67539;48.752;12.922;2023-06-14T14:40:43;3.73;;;3.63;;
78288;SDS011;67539;48.752;12.922;2023-06-14T14:43:11;3.60;;;3.50;;
78288;SDS011;67539;48.752;12.922;2023-06-14T14:45:40;3.30;;;3.20;;
78288;SDS011;67539;48.752;12.922;2023-06-14T14:48:08;3.90;;;3.60;;
78288;SDS011;67539;48.752;12.922;2023-06-14T14:50:36;3.30;;;3.20;;
78288;SDS011;67539;48.752;12.922;2023-06-14T14:53:04;3.63;;;3.43;;